world map with CER marked

CER - Airport

This information may not be accurate or current and is not valid for navigation or flight planning. No warranty of fitness for any purpose is made or implied.

flag of Basse-Normandie (Lower Normandy)flag of France

Donate via PayPal

Additional information is available on the NEW Great Circle Mapper

Location
City:  Cherbourg, Basse-Normandie (Lower Normandy), France
Name:Maupertus
ICAO / IATA:LFRC / CER

Details
Type:Airport (Aerodrome, Airfield)
Use:Public/Civil
Latitude:49°39'03"N (49.650833)
Longitude:1°28'31"W (-1.475277)
Elevation:459 ft (140 m)
Runways:1
Longest:8005 × 148 ft (2440 × 45 m)

Time
Timezone:UTC+1 (DST+4)
Local Time:

Weather
METAR:LFRC  041400Z AUTO 20020G30KT 9999 OVC007 07/05 Q1018 TEMPO 3000 BR BKN003
TAF:LFRC  (expired)

Related Locations
Nearby:
Farthest:NZDC: 11981 mi / 19282 km
Dunedin [City Heliport], OTA, NZ

Find:

   beyond  
but within

Other Information
Maps:
Links:
Sources:

  


 


Great Circle Mapper   Great Circle Mapper
Great Circle Mapper FAQ   Great Circle Mapper FAQ
  Karl's Home Page
KLSē   KLSē Home
   GC on Facebook
Airlines of the World   Airlines of the World
Donate via PayPal


Copyright © 2004-2019, Karl L. Swartz. All rights reserved.
All trademarks mentioned herein belong to their respective owners.

Please see credits for attribution and copyright information.

Karl Swartz <karl@kls2.com>
  Powered by FreeBSD
Valid HTML 4.01!
Labeled with ICRA
hCard Microformat
Geo Microformat